Time;durP1;ratioP1;P1;durP2;ratioP2;P2;SDS_P1;SDS_P2;PMS_P1;PMS_P2;Temp;Humidity;BMP_temperature;BMP_pressure;BME280_temperature;BME280_humidity;BME280_pressure;Samples;Min_cycle;Max_cycle;Signal;HPM_P1;HPM_P2
2024/01/29 00:00:09;;;;;;;0.52;0.52;;;;;;;-3.17;100.00;97383.47;1027659;28;20047;-71
2024/01/29 00:00:40;;;;;;;0.65;0.60;;;;;;;-3.18;100.00;97384.41;1035676;28;20022;-72
2024/01/29 00:01:10;;;;;;;2.92;1.27;;;;;;;-3.18;100.00;97384.41;1035992;28;20270;-73
2024/01/29 00:01:44;;;;;;;0.20;0.20;;;;;;;-3.18;100.00;97377.53;1042377;28;20033;-70
2024/01/29 00:02:14;;;;;;;1.30;1.08;;;;;;;-3.18;100.00;97382.66;1043956;28;20021;-72
2024/01/29 00:02:45;;;;;;;0.47;0.47;;;;;;;-3.17;100.00;97379.13;1039346;28;20277;-72
2024/01/29 00:03:16;;;;;;;0.13;0.13;;;;;;;-3.17;100.00;97371.44;1039184;28;20093;-72
2024/01/29 00:03:46;;;;;;;0.50;0.50;;;;;;;-3.16;100.00;97383.31;1036163;28;20081;-68
2024/01/29 00:04:16;;;;;;;0.28;0.20;;;;;;;-3.15;100.00;97379.00;1034989;28;20221;-69
2024/01/29 00:04:47;;;;;;;0.63;0.63;;;;;;;-3.23;100.00;97366.03;1030451;28;20026;-69
2024/01/29 00:05:17;;;;;;;0.00;0.00;;;;;;;-3.13;100.00;97379.66;1026879;28;20050;-68
2024/01/29 00:05:48;;;;;;;0.17;0.17;;;;;;;-3.14;100.00;97378.88;1026792;28;20122;-67
2024/01/29 00:06:18;;;;;;;0.38;0.38;;;;;;;-3.13;100.00;97379.66;1026783;28;20031;-68
2024/01/29 00:06:49;;;;;;;0.32;0.32;;;;;;;-3.13;100.00;97379.66;1027750;28;20042;-69
2024/01/29 00:07:19;;;;;;;1.25;1.15;;;;;;;-3.13;100.00;97380.47;1031332;28;20037;-72
2024/01/29 00:07:50;;;;;;;1.52;1.05;;;;;;;-3.13;100.00;97375.34;1027491;28;20557;-68
2024/01/29 00:08:20;;;;;;;0.05;0.05;;;;;;;-3.12;100.00;97378.72;1031582;28;20038;-69
2024/01/29 00:08:52;;;;;;;0.25;0.25;;;;;;;-3.13;100.00;97380.47;1030711;28;20069;-69
2024/01/29 00:09:23;;;;;;;0.10;0.10;;;;;;;-3.13;100.00;97377.91;1027787;28;20031;-67
2024/01/29 00:09:54;;;;;;;2.38;2.17;;;;;;;-3.11;100.00;97378.59;1030916;28;20712;-68
2024/01/29 00:10:25;;;;;;;2.00;1.65;;;;;;;-3.11;100.00;97383.72;1022165;29;20279;-68
2024/01/29 00:10:56;;;;;;;0.40;0.30;;;;;;;-3.11;100.00;97386.28;1023512;29;20052;-69
2024/01/29 00:11:26;;;;;;;0.22;0.22;;;;;;;-3.10;100.00;97385.34;1019323;29;20791;-68
2024/01/29 00:11:57;;;;;;;0.65;0.63;;;;;;;-3.08;100.00;97375.75;1022900;28;20082;-68
2024/01/29 00:12:27;;;;;;;0.30;0.30;;;;;;;-3.09;100.00;97386.16;1031691;28;20027;-70
2024/01/29 00:12:58;;;;;;;0.17;0.17;;;;;;;-3.09;100.00;97376.69;1027266;28;20078;-69
2024/01/29 00:13:28;;;;;;;0.45;0.45;;;;;;;-3.06;100.00;97385.06;1029459;28;20026;-68
2024/01/29 00:13:59;;;;;;;0.90;0.63;;;;;;;-3.13;100.00;97375.34;1031297;28;20074;-69
2024/01/29 00:14:30;;;;;;;0.43;0.43;;;;;;;-3.05;100.00;97381.53;1027372;28;20023;-68
2024/01/29 00:15:01;;;;;;;0.25;0.25;;;;;;;-3.04;100.00;97388.31;1024044;28;20038;-68
2024/01/29 00:15:32;;;;;;;0.47;0.47;;;;;;;-3.06;100.00;97385.06;1027390;28;20405;-68
2024/01/29 00:16:03;;;;;;;0.20;0.20;;;;;;;-3.05;100.00;97390.09;1026961;28;20477;-69
2024/01/29 00:16:33;;;;;;;0.40;0.40;;;;;;;-3.12;100.00;97376.97;1024118;28;20267;-69
2024/01/29 00:17:04;;;;;;;0.17;0.17;;;;;;;-3.09;100.00;97386.94;1027100;28;20022;-69
2024/01/29 00:17:34;;;;;;;0.15;0.15;;;;;;;-3.08;100.00;97388.59;1027797;28;20064;-68
2024/01/29 00:18:05;;;;;;;0.25;0.25;;;;;;;-3.06;100.00;97390.19;1027293;28;20030;-68
2024/01/29 00:18:35;;;;;;;0.98;0.98;;;;;;;-3.09;100.00;97386.16;1025250;28;20066;-71
2024/01/29 00:19:06;;;;;;;0.22;0.22;;;;;;;-3.09;100.00;97392.09;1026921;28;20031;-68
2024/01/29 00:19:36;;;;;;;0.52;0.52;;;;;;;-3.11;100.00;97390.63;1023224;28;20164;-68
2024/01/29 00:20:07;;;;;;;1.17;1.15;;;;;;;-3.09;100.00;97391.28;1027206;28;20038;-70
2024/01/29 00:20:38;;;;;;;1.63;1.52;;;;;;;-3.10;100.00;97389.66;1031419;28;20027;-68
2024/01/29 00:21:08;;;;;;;0.88;0.73;;;;;;;-3.12;100.00;97386.41;1035186;28;20260;-70
2024/01/29 00:21:39;;;;;;;1.25;1.17;;;;;;;-3.14;100.00;97389.13;1035809;28;20033;-68
2024/01/29 00:22:09;;;;;;;0.55;0.55;;;;;;;-3.15;100.00;97387.53;1031922;28;20030;-68
2024/01/29 00:22:40;;;;;;;2.60;2.38;;;;;;;-3.15;100.00;97384.94;1027239;28;20027;-71
2024/01/29 00:23:10;;;;;;;0.70;0.20;;;;;;;-3.24;100.00;97378.06;1027650;28;20027;-68
2024/01/29 00:23:40;;;;;;;0.22;0.22;;;;;;;-3.19;100.00;97383.56;1027294;28;20094;-68
2024/01/29 00:24:11;;;;;;;2.45;0.98;;;;;;;-3.24;100.00;97383.19;1027469;28;20134;-69
2024/01/29 00:24:41;;;;;;;1.65;1.55;;;;;;;-3.22;100.00;97389.00;1031741;28;20030;-67
2024/01/29 00:25:12;;;;;;;0.30;0.30;;;;;;;-3.22;100.00;97390.75;1031108;28;20077;-69
2024/01/29 00:25:42;;;;;;;0.45;0.45;;;;;;;-3.22;100.00;97386.44;1031647;28;20034;-71
2024/01/29 00:26:13;;;;;;;0.40;0.40;;;;;;;-3.24;100.00;97393.44;1031348;28;20030;-70
2024/01/29 00:26:44;;;;;;;0.25;0.25;;;;;;;-3.25;100.00;97391.84;1031465;28;20034;-70
2024/01/29 00:27:14;;;;;;;0.68;0.68;;;;;;;-3.25;100.00;97384.16;1031678;28;20038;-70
2024/01/29 00:27:45;;;;;;;0.50;0.50;;;;;;;-3.27;100.00;97388.59;1035285;28;20029;-68
2024/01/29 00:28:15;;;;;;;1.33;1.23;;;;;;;-3.25;100.00;97386.72;1035259;28;20144;-68
2024/01/29 00:28:45;;;;;;;1.08;1.00;;;;;;;-3.28;100.00;97386.16;1034983;28;20049;-68
2024/01/29 00:29:16;;;;;;;0.17;0.17;;;;;;;-3.29;100.00;97390.47;1035332;28;20034;-70
2024/01/29 00:29:46;;;;;;;1.60;1.50;;;;;;;-3.32;100.00;97388.16;1039713;28;20562;-70
2024/01/29 00:30:17;;;;;;;0.10;0.10;;;;;;;-3.29;100.00;97387.09;1039809;28;20056;-71
2024/01/29 00:30:47;;;;;;;0.10;0.10;;;;;;;-3.29;100.00;97385.34;1039772;28;20056;-68
2024/01/29 00:31:18;;;;;;;1.08;1.05;;;;;;;-3.30;100.00;97382.91;1031688;28;20429;-69
2024/01/29 00:31:49;;;;;;;1.08;1.00;;;;;;;-3.34;100.00;97379.81;1027365;28;20531;-68
2024/01/29 00:32:19;;;;;;;3.10;0.57;;;;;;;-3.35;100.00;97381.56;1023293;29;20035;-69
2024/01/29 00:32:49;;;;;;;0.20;0.20;;;;;;;-3.35;100.00;97383.34;1023643;28;20609;-68
2024/01/29 00:33:20;;;;;;;1.40;1.05;;;;;;;-3.36;100.00;97384.25;1027328;28;20042;-70
2024/01/29 00:33:52;;;;;;;0.10;0.10;;;;;;;-3.36;100.00;97382.50;1032857;28;20049;-68
2024/01/29 00:34:22;;;;;;;0.20;0.20;;;;;;;-3.35;100.00;97375.63;1035594;28;20670;-69
2024/01/29 00:34:53;;;;;;;0.50;0.50;;;;;;;-3.36;100.00;97385.06;1031117;28;20265;-68
2024/01/29 00:35:24;;;;;;;0.35;0.35;;;;;;;-3.36;100.00;97384.25;1031518;28;20508;-70
2024/01/29 00:35:54;;;;;;;0.10;0.10;;;;;;;-3.36;100.00;97381.69;1031224;28;20300;-68
2024/01/29 00:36:25;;;;;;;0.00;0.00;;;;;;;-3.35;100.00;97383.34;1031625;28;20033;-68
2024/01/29 00:36:55;;;;;;;2.92;0.47;;;;;;;-3.33;100.00;97389.13;1035782;28;20030;-69
2024/01/29 00:37:26;;;;;;;0.65;0.65;;;;;;;-3.37;100.00;97380.06;1036355;28;20619;-68
2024/01/29 00:37:56;;;;;;;0.55;0.55;;;;;;;-3.31;100.00;97387.25;1035082;28;20042;-71
2024/01/29 00:38:27;;;;;;;0.65;0.45;;;;;;;-3.30;100.00;97383.72;1031582;28;20029;-68
2024/01/29 00:38:57;;;;;;;0.08;0.08;;;;;;;-3.27;100.00;97386.03;1032409;28;20497;-71
2024/01/29 00:39:28;;;;;;;2.17;1.65;;;;;;;-3.24;100.00;97385.75;1035788;28;20029;-67
2024/01/29 00:39:58;;;;;;;0.60;0.60;;;;;;;-3.23;100.00;97386.56;1031727;28;20049;-69
2024/01/29 00:40:30;;;;;;;0.20;0.20;;;;;;;-3.23;100.00;97387.38;1035598;28;20022;-70
2024/01/29 00:41:00;;;;;;;4.00;2.25;;;;;;;-3.24;100.00;97393.44;1032125;28;20039;-69
2024/01/29 00:41:31;;;;;;;0.28;0.28;;;;;;;-3.28;100.00;97376.72;1028212;28;20274;-69
2024/01/29 00:42:01;;;;;;;0.52;0.52;;;;;;;-3.22;100.00;97390.75;1027694;28;20027;-67
2024/01/29 00:42:31;;;;;;;10.43;0.90;;;;;;;-3.22;100.00;97389.00;1030161;28;20533;-68
2024/01/29 00:43:02;;;;;;;0.90;0.75;;;;;;;-3.20;100.00;97384.53;1031758;28;20034;-66
2024/01/29 00:43:33;;;;;;;2.53;1.25;;;;;;;-3.20;100.00;97388.84;1035594;28;20060;-68
2024/01/29 00:44:03;;;;;;;0.10;0.10;;;;;;;-3.24;100.00;97379.81;1039833;28;20271;-68
2024/01/29 00:44:34;;;;;;;1.35;1.10;;;;;;;-3.17;100.00;97383.47;1031542;28;20053;-68
2024/01/29 00:45:05;;;;;;;0.28;0.28;;;;;;;-3.18;100.00;97384.41;1028112;28;20135;-69
2024/01/29 00:45:35;;;;;;;0.77;0.75;;;;;;;-3.19;100.00;97383.56;1027570;28;20105;-68
2024/01/29 00:46:05;;;;;;;1.17;1.17;;;;;;;-3.19;100.00;97390.47;1019411;28;20043;-69
2024/01/29 00:46:39;;;;;;;0.93;0.93;;;;;;;-3.21;100.00;97395.75;1023847;28;20042;-67
2024/01/29 00:47:09;;;;;;;1.13;0.88;;;;;;;-3.23;100.00;97384.00;1027424;28;20050;-68
2024/01/29 00:47:40;;;;;;;0.85;0.65;;;;;;;-3.23;100.00;97389.94;1024555;28;20524;-68
2024/01/29 00:48:10;;;;;;;0.17;0.17;;;;;;;-3.24;100.00;97396.03;1031523;28;20553;-70
2024/01/29 00:48:41;;;;;;;2.25;2.15;;;;;;;-3.26;100.00;97389.41;1034839;28;20433;-67
2024/01/29 00:49:12;;;;;;;0.22;0.22;;;;;;;-3.26;100.00;97390.19;1031868;28;20118;-68
2024/01/29 00:49:42;;;;;;;1.25;0.70;;;;;;;-3.27;100.00;97393.72;1032896;28;20327;-69
2024/01/29 00:50:13;;;;;;;0.32;0.32;;;;;;;-3.29;100.00;97387.91;1027398;28;20027;-68
2024/01/29 00:50:43;;;;;;;0.47;0.47;;;;;;;-3.30;100.00;97393.19;1023740;28;20035;-67
2024/01/29 00:51:14;;;;;;;1.13;0.88;;;;;;;-3.34;100.00;97390.88;1024287;28;20027;-68
2024/01/29 00:51:44;;;;;;;0.00;0.00;;;;;;;-3.34;100.00;97393.44;1023989;28;20507;-71
2024/01/29 00:52:15;;;;;;;0.40;0.40;;;;;;;-3.33;100.00;97391.69;1023576;28;20031;-68
2024/01/29 00:52:45;;;;;;;1.13;1.13;;;;;;;-3.34;100.00;97387.50;1023360;28;20083;-67
2024/01/29 00:53:16;;;;;;;0.47;0.47;;;;;;;-3.36;100.00;97384.25;1023643;28;20042;-69
2024/01/29 00:53:47;;;;;;;0.00;0.00;;;;;;;-3.37;100.00;97387.78;1023409;28;20381;-71
2024/01/29 00:54:19;;;;;;;0.85;0.85;;;;;;;-3.45;100.00;97382.50;1027611;28;20381;-68
2024/01/29 00:54:49;;;;;;;2.50;1.10;;;;;;;-3.42;100.00;97383.06;1023316;29;20294;-68
2024/01/29 00:55:20;;;;;;;0.22;0.22;;;;;;;-3.43;100.00;97389.09;1023405;28;20777;-68
2024/01/29 00:55:50;;;;;;;0.65;0.65;;;;;;;-3.43;100.00;97385.75;1027872;28;20034;-67
2024/01/29 00:56:20;;;;;;;0.50;0.50;;;;;;;-3.44;100.00;97386.69;1031641;28;20038;-68
2024/01/29 00:56:51;;;;;;;0.55;0.55;;;;;;;-3.48;100.00;97381.03;1039876;28;20033;-68
2024/01/29 00:57:22;;;;;;;0.73;0.73;;;;;;;-3.44;100.00;97386.69;1035822;28;20091;-67
2024/01/29 00:57:52;;;;;;;0.43;0.43;;;;;;;-3.44;100.00;97382.38;1031393;28;20038;-68
2024/01/29 00:58:23;;;;;;;4.68;1.67;;;;;;;-3.46;100.00;97383.44;1031264;28;20429;-67
2024/01/29 00:58:54;;;;;;;1.27;1.17;;;;;;;-3.44;100.00;97384.13;1031071;28;20034;-68
2024/01/29 00:59:24;;;;;;;1.10;0.88;;;;;;;-3.46;100.00;97380.88;1029266;28;20277;-67
2024/01/29 00:59:55;;;;;;;0.90;0.90;;;;;;;-3.50;100.00;97376.97;1031123;28;20085;-69
2024/01/29 01:00:26;;;;;;;1.27;0.90;;;;;;;-3.47;100.00;97382.63;1023639;28;20031;-69
2024/01/29 01:00:56;;;;;;;1.40;1.30;;;;;;;-3.48;100.00;97386.16;1024610;28;20839;-67
2024/01/29 01:01:26;;;;;;;2.15;0.90;;;;;;;-3.47;100.00;97384.41;1027635;28;20446;-69
2024/01/29 01:01:57;;;;;;;1.60;1.45;;;;;;;-3.56;100.00;97376.53;1023440;28;20102;-67
2024/01/29 01:02:27;;;;;;;0.10;0.10;;;;;;;-3.50;100.00;97388.03;1027317;28;20066;-67
2024/01/29 01:02:58;;;;;;;1.05;1.05;;;;;;;-3.50;100.00;97389.78;1023628;29;20038;-69
2024/01/29 01:03:28;;;;;;;0.57;0.50;;;;;;;-3.51;100.00;97388.97;1019481;28;20023;-70
2024/01/29 01:03:59;;;;;;;0.60;0.57;;;;;;;-3.52;100.00;97381.41;1027876;28;20375;-67
2024/01/29 01:04:29;;;;;;;0.28;0.28;;;;;;;-3.53;100.00;97388.28;1031347;28;20035;-68
2024/01/29 01:05:00;;;;;;;4.88;1.80;;;;;;;-3.53;100.00;97383.16;1035353;28;20097;-69
2024/01/29 01:05:30;;;;;;;0.43;0.43;;;;;;;-3.55;100.00;97374.81;1031729;28;20034;-68
2024/01/29 01:06:01;;;;;;;2.03;0.85;;;;;;;-3.51;100.00;97380.47;1028558;28;20027;-69
2024/01/29 01:06:31;;;;;;;0.20;0.20;;;;;;;-3.49;100.00;97376.00;1027984;28;20521;-67
2024/01/29 01:07:02;;;;;;;1.23;1.13;;;;;;;-3.52;100.00;97381.41;1031551;28;20084;-67
2024/01/29 01:07:32;;;;;;;0.45;0.45;;;;;;;-3.52;100.00;97382.25;1027511;28;20041;-65
2024/01/29 01:08:03;;;;;;;0.00;0.00;;;;;;;-3.51;100.00;97375.34;1031429;28;20061;-71
2024/01/29 01:08:34;;;;;;;0.38;0.38;;;;;;;-3.52;100.00;97377.09;1031191;28;20034;-70
2024/01/29 01:09:04;;;;;;;4.40;1.25;;;;;;;-3.53;100.00;97379.78;1022717;28;20267;-67
2024/01/29 01:09:34;;;;;;;0.40;0.40;;;;;;;-3.51;100.00;97380.47;1023462;29;20020;-68
2024/01/29 01:10:05;;;;;;;0.60;0.60;;;;;;;-3.51;100.00;97373.59;1023477;28;20355;-67
2024/01/29 01:10:36;;;;;;;2.60;0.73;;;;;;;-3.52;100.00;97381.41;1027490;28;20068;-67
2024/01/29 01:11:07;;;;;;;0.50;0.50;;;;;;;-3.52;100.00;97383.97;1030345;28;20019;-69
2024/01/29 01:11:37;;;;;;;0.80;0.70;;;;;;;-3.53;100.00;97374.66;1032068;28;20029;-67
2024/01/29 01:12:08;;;;;;;0.40;0.40;;;;;;;-3.52;100.00;97381.41;1035814;28;20724;-69
2024/01/29 01:12:38;;;;;;;0.45;0.45;;;;;;;-3.53;100.00;97374.66;1035657;28;20038;-70
2024/01/29 01:13:09;;;;;;;0.43;0.43;;;;;;;-3.52;100.00;97371.97;1031270;28;20030;-70
2024/01/29 01:13:39;;;;;;;1.02;0.95;;;;;;;-3.53;100.00;97378.03;1034918;28;20124;-68
2024/01/29 01:14:10;;;;;;;0.17;0.15;;;;;;;-3.56;100.00;97379.09;1035396;28;20061;-68
2024/01/29 01:14:40;;;;;;;0.10;0.10;;;;;;;-3.53;100.00;97379.78;1032814;28;20092;-68
2024/01/29 01:15:11;;;;;;;0.20;0.20;;;;;;;-3.56;100.00;97375.72;1037918;28;20022;-68
2024/01/29 01:15:41;;;;;;;4.18;2.10;;;;;;;-3.54;100.00;97380.75;1027236;28;20023;-67
2024/01/29 01:16:12;;;;;;;0.65;0.65;;;;;;;-3.56;100.00;97384.22;1027452;28;20048;-68
2024/01/29 01:16:42;;;;;;;0.98;0.30;;;;;;;-3.56;100.00;97379.09;1027232;28;20031;-68
2024/01/29 01:17:13;;;;;;;0.43;0.43;;;;;;;-3.58;100.00;97381.00;1027179;28;20090;-71
2024/01/29 01:17:45;;;;;;;0.95;0.95;;;;;;;-3.59;100.00;97384.53;1031312;28;20030;-69
2024/01/29 01:18:15;;;;;;;0.85;0.85;;;;;;;-3.59;100.00;97381.13;1035389;28;20764;-67
2024/01/29 01:18:46;;;;;;;1.35;1.20;;;;;;;-3.59;100.00;97388.81;1035039;28;20339;-69
2024/01/29 01:19:16;;;;;;;0.25;0.25;;;;;;;-3.60;100.00;97380.31;1031649;28;20023;-68
2024/01/29 01:19:47;;;;;;;3.30;0.90;;;;;;;-3.61;100.00;97381.28;1031292;28;20464;-70
2024/01/29 01:20:17;;;;;;;0.30;0.30;;;;;;;-3.62;100.00;97383.94;1031535;28;20053;-67
2024/01/29 01:20:48;;;;;;;0.00;0.00;;;;;;;-3.64;100.00;97383.28;1027297;28;20030;-67
2024/01/29 01:21:18;;;;;;;0.28;0.28;;;;;;;-3.63;100.00;97383.16;1027167;28;20047;-68
2024/01/29 01:21:49;;;;;;;0.63;0.63;;;;;;;-3.63;100.00;97383.16;1027322;28;20705;-68
2024/01/29 01:22:19;;;;;;;0.28;0.28;;;;;;;-3.64;100.00;97381.53;1027486;28;20034;-69
2024/01/29 01:22:50;;;;;;;1.38;1.08;;;;;;;-3.61;100.00;97388.97;1031211;28;20148;-69
2024/01/29 01:23:20;;;;;;;0.40;0.40;;;;;;;-3.62;100.00;97384.78;1031506;28;20021;-67
2024/01/29 01:23:51;;;;;;;1.27;1.17;;;;;;;-3.60;100.00;97388.00;1027102;28;20545;-68
2024/01/29 01:24:21;;;;;;;0.00;0.00;;;;;;;-3.60;100.00;97388.00;1027662;28;20026;-68
2024/01/29 01:24:52;;;;;;;0.45;0.45;;;;;;;-3.61;100.00;97383.84;1031267;28;20106;-69
2024/01/29 01:25:22;;;;;;;1.80;1.50;;;;;;;-3.60;100.00;97387.22;1035515;28;20418;-67
2024/01/29 01:25:53;;;;;;;0.47;0.35;;;;;;;-3.59;100.00;97386.25;1035472;28;20033;-68
2024/01/29 01:26:23;;;;;;;0.45;0.45;;;;;;;-3.65;100.00;97377.34;1034375;28;20457;-69
2024/01/29 01:26:54;;;;;;;1.75;0.45;;;;;;;-3.60;100.00;97388.00;1023575;28;20191;-68
2024/01/29 01:27:24;;;;;;;3.50;0.68;;;;;;;-3.60;100.00;97384.63;1027617;28;20046;-68
2024/01/29 01:27:55;;;;;;;0.28;0.28;;;;;;;-3.60;100.00;97382.06;1027138;28;20467;-67
2024/01/29 01:28:26;;;;;;;0.17;0.17;;;;;;;-3.62;100.00;97384.78;1023816;28;20042;-68
2024/01/29 01:28:56;;;;;;;0.55;0.55;;;;;;;-3.62;100.00;97374.53;1030721;28;20482;-69
2024/01/29 01:29:27;;;;;;;0.40;0.40;;;;;;;-3.63;100.00;97378.00;1031220;28;20023;-67
2024/01/29 01:29:57;;;;;;;0.32;0.32;;;;;;;-3.62;100.00;97374.53;1027302;28;20019;-68
2024/01/29 01:30:28;;;;;;;0.45;0.30;;;;;;;-3.62;100.00;97374.53;1031073;28;20422;-68
2024/01/29 01:30:58;;;;;;;0.55;0.28;;;;;;;-3.62;100.00;97374.53;1027304;28;20529;-68
2024/01/29 01:31:29;;;;;;;0.50;0.50;;;;;;;-3.63;100.00;97372.88;1024479;28;20031;-69
2024/01/29 01:31:59;;;;;;;2.28;0.88;;;;;;;-3.63;100.00;97375.44;1031166;28;20514;-69
2024/01/29 01:32:30;;;;;;;0.20;0.20;;;;;;;-3.62;100.00;97373.69;1031696;28;20041;-70
2024/01/29 01:33:00;;;;;;;2.75;1.27;;;;;;;-3.61;100.00;97376.13;1027344;28;20786;-68
2024/01/29 01:33:31;;;;;;;0.25;0.25;;;;;;;-3.60;100.00;97374.38;1027277;28;20019;-68
2024/01/29 01:34:01;;;;;;;0.57;0.55;;;;;;;-3.61;100.00;97380.47;1027377;28;20055;-69
2024/01/29 01:34:32;;;;;;;0.40;0.40;;;;;;;-3.60;100.00;97371.81;1023320;28;20102;-68
2024/01/29 01:35:02;;;;;;;0.43;0.43;;;;;;;-3.61;100.00;97378.69;1027279;28;20034;-68
2024/01/29 01:35:33;;;;;;;0.00;0.00;;;;;;;-3.61;100.00;97373.56;1027535;28;20178;-68
2024/01/29 01:36:03;;;;;;;0.20;0.20;;;;;;;-3.61;100.00;97373.56;1031248;28;20022;-69
2024/01/29 01:36:34;;;;;;;0.35;0.35;;;;;;;-3.61;100.00;97373.56;1034456;28;20026;-68
2024/01/29 01:37:04;;;;;;;0.28;0.28;;;;;;;-3.66;100.00;97367.22;1031810;28;20122;-68
2024/01/29 01:37:35;;;;;;;0.98;0.60;;;;;;;-3.59;100.00;97373.44;1031282;28;20018;-68
2024/01/29 01:38:05;;;;;;;0.45;0.45;;;;;;;-3.59;100.00;97364.00;1035385;28;20037;-70
2024/01/29 01:38:36;;;;;;;1.15;0.98;;;;;;;-3.59;100.00;97374.25;1031643;28;20022;-67
2024/01/29 01:39:06;;;;;;;1.27;1.17;;;;;;;-3.61;100.00;97358.19;1029707;28;20018;-68
2024/01/29 01:39:37;;;;;;;0.70;0.70;;;;;;;-3.71;100.00;97339.41;1031459;28;20026;-67
2024/01/29 01:40:08;;;;;;;0.45;0.45;;;;;;;-3.59;100.00;97358.03;1029037;28;20026;-68
2024/01/29 01:40:39;;;;;;;0.38;0.38;;;;;;;-3.57;100.00;97367.22;1024863;28;20030;-67
2024/01/29 01:41:09;;;;;;;0.35;0.35;;;;;;;-3.52;100.00;97368.56;1023635;28;20830;-67
2024/01/29 01:41:47;;;;;;;0.90;0.90;;;;;;;-3.51;100.00;97371.03;1027293;28;20050;-68
2024/01/29 01:42:17;;;;;;;0.38;0.25;;;;;;;-3.53;100.00;97372.09;1024404;28;20098;-70
2024/01/29 01:42:48;;;;;;;0.70;0.63;;;;;;;-3.54;100.00;97378.97;1024414;28;20263;-68
2024/01/29 01:43:20;;;;;;;0.55;0.40;;;;;;;-3.59;100.00;97370.88;1031005;28;20029;-69
2024/01/29 01:43:51;;;;;;;0.35;0.35;;;;;;;-3.56;100.00;97373.16;1022222;28;20031;-69
2024/01/29 01:44:21;;;;;;;0.55;0.55;;;;;;;-3.56;100.00;97373.97;1023308;28;20267;-68
2024/01/29 01:44:52;;;;;;;0.40;0.40;;;;;;;-3.58;100.00;97360.47;1027494;28;20019;-69
2024/01/29 01:45:22;;;;;;;0.20;0.20;;;;;;;-3.57;100.00;97367.22;1027563;28;20474;-70
2024/01/29 01:46:04;;;;;;;0.45;0.45;;;;;;;-3.57;100.00;97364.66;1027262;28;20077;-69
2024/01/29 01:46:35;;;;;;;1.33;1.23;;;;;;;-3.55;100.00;97374.81;1027354;28;20026;-68
2024/01/29 01:47:06;;;;;;;0.10;0.10;;;;;;;-3.57;100.00;97369.78;1027565;28;20332;-70
2024/01/29 01:47:36;;;;;;;1.48;0.47;;;;;;;-3.56;100.00;97368.03;1022791;28;20403;-69
2024/01/29 01:48:07;;;;;;;0.00;0.00;;;;;;;-3.61;100.00;97359.94;1023058;29;20082;-69
2024/01/29 01:48:37;;;;;;;0.32;0.32;;;;;;;-3.56;100.00;97368.84;1019083;29;20067;-68
2024/01/29 01:49:08;;;;;;;2.20;1.67;;;;;;;-3.54;100.00;97362.78;1015433;29;20036;-68
2024/01/29 01:49:39;;;;;;;0.35;0.35;;;;;;;-3.54;100.00;97367.91;1021068;28;20027;-68
2024/01/29 01:50:09;;;;;;;2.05;0.73;;;;;;;-3.52;100.00;97368.56;1023369;28;20030;-69
2024/01/29 01:50:40;;;;;;;0.68;0.30;;;;;;;-3.53;100.00;97366.97;1027198;28;20341;-68
2024/01/29 01:51:11;;;;;;;2.88;1.98;;;;;;;-3.54;100.00;97375.63;1027165;28;20027;-69
2024/01/29 01:51:41;;;;;;;0.70;0.40;;;;;;;-3.54;100.00;97368.72;1027758;28;20022;-69
2024/01/29 01:52:12;;;;;;;0.32;0.32;;;;;;;-3.56;100.00;97366.28;1027119;28;20105;-70
2024/01/29 01:52:42;;;;;;;2.75;0.95;;;;;;;-3.54;100.00;97367.91;1023040;29;20031;-69
2024/01/29 01:53:13;;;;;;;2.13;1.30;;;;;;;-3.54;100.00;97370.47;1023420;28;20053;-68
2024/01/29 01:53:43;;;;;;;0.68;0.68;;;;;;;-3.54;100.00;97370.47;1023267;28;20031;-69
2024/01/29 01:54:13;;;;;;;1.35;0.60;;;;;;;-3.57;100.00;97367.22;1031139;28;20414;-68
2024/01/29 01:54:44;;;;;;;0.93;0.93;;;;;;;-3.56;100.00;97368.84;1023329;29;20050;-67
2024/01/29 01:55:14;;;;;;;0.20;0.20;;;;;;;-3.55;100.00;97374.81;1023122;29;20067;-69
2024/01/29 01:55:45;;;;;;;0.28;0.28;;;;;;;-3.61;100.00;97368.44;1027551;28;20087;-67
2024/01/29 01:56:15;;;;;;;0.25;0.25;;;;;;;-3.57;100.00;97364.66;1030766;28;20498;-67
2024/01/29 01:56:46;;;;;;;1.45;0.85;;;;;;;-3.56;100.00;97366.28;1015327;29;20028;-70
2024/01/29 01:57:16;;;;;;;0.10;0.10;;;;;;;-3.56;100.00;97363.72;1019452;29;20019;-68
2024/01/29 01:57:47;;;;;;;0.50;0.50;;;;;;;-3.59;100.00;97358.88;1023193;28;20090;-67
2024/01/29 01:58:18;;;;;;;1.55;1.00;;;;;;;-3.57;100.00;97371.56;1022981;29;20023;-68
2024/01/29 01:58:49;;;;;;;0.20;0.20;;;;;;;-3.60;100.00;97372.63;1023124;28;20031;-69
2024/01/29 01:59:19;;;;;;;1.02;1.00;;;;;;;-3.62;100.00;97361.69;1022976;29;21010;-68
2024/01/29 01:59:50;;;;;;;0.28;0.28;;;;;;;-3.61;100.00;97368.44;1019757;28;20035;-68
2024/01/29 02:00:20;;;;;;;0.45;0.45;;;;;;;-3.61;100.00;97370.19;1023124;29;20493;-68
2024/01/29 02:00:51;;;;;;;0.77;0.63;;;;;;;-3.60;100.00;97370.06;1023042;29;20027;-68
2024/01/29 02:01:21;;;;;;;1.88;1.73;;;;;;;-3.62;100.00;97366.84;1019420;29;20012;-69
2024/01/29 02:01:52;;;;;;;0.60;0.40;;;;;;;-3.59;100.00;97371.69;1027308;28;20031;-68
2024/01/29 02:02:23;;;;;;;1.00;1.00;;;;;;;-3.60;100.00;97361.56;1031182;28;20026;-68
2024/01/29 02:02:54;;;;;;;0.13;0.13;;;;;;;-3.62;100.00;97366.84;1023181;29;20051;-67
2024/01/29 02:03:25;;;;;;;0.52;0.52;;;;;;;-3.62;100.00;97374.53;1022832;28;20487;-69
2024/01/29 02:03:55;;;;;;;0.30;0.30;;;;;;;-3.64;100.00;97368.72;1023699;28;20263;-68
2024/01/29 02:04:26;;;;;;;1.85;1.75;;;;;;;-3.64;100.00;97368.72;1027665;28;20817;-70
2024/01/29 02:04:57;;;;;;;1.38;0.47;;;;;;;-3.65;100.00;97369.66;1035155;28;20389;-69
2024/01/29 02:05:27;;;;;;;0.10;0.10;;;;;;;-3.64;100.00;97363.56;1039685;28;20025;-68
2024/01/29 02:05:58;;;;;;;0.45;0.45;;;;;;;-3.71;100.00;97357.38;1039631;28;20657;-68
2024/01/29 02:06:28;;;;;;;3.00;0.80;;;;;;;-3.65;100.00;97363.72;1030963;28;20082;-68
2024/01/29 02:06:59;;;;;;;0.43;0.43;;;;;;;-3.68;100.00;97364.78;1027415;28;20102;-69
2024/01/29 02:07:29;;;;;;;0.75;0.75;;;;;;;-3.68;100.00;97362.22;1026940;28;20101;-68
2024/01/29 02:07:59;;;;;;;1.30;1.25;;;;;;;-3.69;100.00;97368.31;1027337;28;20031;-67
2024/01/29 02:08:30;;;;;;;1.35;1.25;;;;;;;-3.70;100.00;97365.88;1035014;28;20521;-70
2024/01/29 02:09:00;;;;;;;1.35;1.25;;;;;;;-3.70;100.00;97369.22;1038824;28;20053;-68
2024/01/29 02:09:31;;;;;;;0.52;0.30;;;;;;;-3.74;100.00;97360.19;1035232;28;20017;-69
2024/01/29 02:10:02;;;;;;;0.85;0.73;;;;;;;-3.71;100.00;97364.25;1030831;28;20026;-67
2024/01/29 02:10:32;;;;;;;1.20;1.10;;;;;;;-3.74;100.00;97365.31;1031033;28;20050;-69
2024/01/29 02:11:03;;;;;;;8.70;0.35;;;;;;;-3.72;100.00;97368.56;1023383;28;20110;-68
2024/01/29 02:11:33;;;;;;;0.20;0.20;;;;;;;-3.74;100.00;97367.88;1027120;28;20062;-67
2024/01/29 02:12:04;;;;;;;0.38;0.38;;;;;;;-3.76;100.00;97367.19;1031464;28;20018;-67
2024/01/29 02:12:34;;;;;;;1.75;0.65;;;;;;;-3.75;100.00;97362.91;1031416;28;20116;-70
2024/01/29 02:13:14;;;;;;;1.55;1.45;;;;;;;-3.75;100.00;97363.72;1039542;28;20025;-68
2024/01/29 02:13:44;;;;;;;0.63;0.60;;;;;;;-3.75;100.00;97366.28;1039757;28;20040;-68
2024/01/29 02:14:15;;;;;;;0.47;0.47;;;;;;;-3.75;100.00;97363.72;1039588;28;20072;-69
2024/01/29 02:14:45;;;;;;;0.30;0.30;;;;;;;-3.75;100.00;97363.72;1035274;28;20062;-71
2024/01/29 02:15:16;;;;;;;0.70;0.70;;;;;;;-3.76;100.00;97366.38;1035316;28;20397;-69
2024/01/29 02:15:46;;;;;;;1.10;1.00;;;;;;;-3.77;100.00;97362.22;1035075;28;20609;-71
2024/01/29 02:16:17;;;;;;;0.65;0.43;;;;;;;-3.77;100.00;97354.50;1035552;28;20025;-68
2024/01/29 02:16:47;;;;;;;0.50;0.50;;;;;;;-3.76;100.00;97358.69;1035000;28;20029;-68
2024/01/29 02:17:17;;;;;;;0.43;0.43;;;;;;;-3.77;100.00;97365.59;1035158;28;20026;-67
2024/01/29 02:17:48;;;;;;;0.98;0.98;;;;;;;-3.78;100.00;97358.84;1035121;28;20033;-67
2024/01/29 02:18:18;;;;;;;0.15;0.15;;;;;;;-3.80;100.00;97360.72;1035152;28;20034;-70
2024/01/29 02:18:49;;;;;;;1.23;1.13;;;;;;;-3.77;100.00;97359.66;1034474;28;20071;-69
2024/01/29 02:19:20;;;;;;;0.28;0.28;;;;;;;-3.79;100.00;97364.88;1027236;28;20019;-67
2024/01/29 02:19:50;;;;;;;1.92;1.30;;;;;;;-3.81;100.00;97361.66;1022955;29;20027;-71
2024/01/29 02:20:21;;;;;;;0.17;0.17;;;;;;;-3.82;100.00;97357.50;1027344;28;20022;-69
2024/01/29 02:20:51;;;;;;;0.75;0.65;;;;;;;-3.80;100.00;97355.59;1022821;29;20023;-68
2024/01/29 02:21:22;;;;;;;0.80;0.80;;;;;;;-3.80;100.00;97355.59;1023230;28;20015;-66
2024/01/29 02:21:52;;;;;;;0.22;0.22;;;;;;;-3.80;100.00;97358.16;1023127;28;20094;-68
2024/01/29 02:22:22;;;;;;;0.75;0.75;;;;;;;-3.80;100.00;97364.09;1022642;28;20030;-68